sensor_id;sensor_type;location;lat;lon;timestamp;temperature;humidity
35746;DHT22;21870;42.812;74.628;2023-09-19T00:00:17;16.60;99.90
35746;DHT22;21870;42.812;74.628;2023-09-19T00:02:46;16.50;99.90
35746;DHT22;21870;42.812;74.628;2023-09-19T00:05:13;16.40;99.90
35746;DHT22;21870;42.812;74.628;2023-09-19T00:07:42;16.30;99.90
35746;DHT22;21870;42.812;74.628;2023-09-19T00:10:08;16.30;99.90
35746;DHT22;21870;42.812;74.628;2023-09-19T00:12:35;16.30;99.90
35746;DHT22;21870;42.812;74.628;2023-09-19T00:15:01;16.30;99.90
35746;DHT22;21870;42.812;74.628;2023-09-19T00:17:31;16.40;99.90
35746;DHT22;21870;42.812;74.628;2023-09-19T00:19:57;16.50;99.90
35746;DHT22;21870;42.812;74.628;2023-09-19T00:22:23;16.50;99.90
35746;DHT22;21870;42.812;74.628;2023-09-19T00:24:52;16.60;99.90
35746;DHT22;21870;42.812;74.628;2023-09-19T00:27:18;16.60;99.90
35746;DHT22;21870;42.812;74.628;2023-09-19T00:29:44;16.70;99.90
35746;DHT22;21870;42.812;74.628;2023-09-19T00:32:10;16.60;99.90
35746;DHT22;21870;42.812;74.628;2023-09-19T00:34:37;16.80;99.90
35746;DHT22;21870;42.812;74.628;2023-09-19T00:37:03;16.80;99.90
35746;DHT22;21870;42.812;74.628;2023-09-19T00:39:29;16.80;99.90
35746;DHT22;21870;42.812;74.628;2023-09-19T00:41:57;16.80;99.90
35746;DHT22;21870;42.812;74.628;2023-09-19T00:44:23;16.60;99.90
35746;DHT22;21870;42.812;74.628;2023-09-19T00:46:50;16.50;99.90
35746;DHT22;21870;42.812;74.628;2023-09-19T00:49:17;16.50;99.90
35746;DHT22;21870;42.812;74.628;2023-09-19T00:51:46;16.40;99.90
35746;DHT22;21870;42.812;74.628;2023-09-19T00:54:13;16.30;99.90
35746;DHT22;21870;42.812;74.628;2023-09-19T00:56:45;16.30;99.90
35746;DHT22;21870;42.812;74.628;2023-09-19T00:59:11;16.20;99.90
35746;DHT22;21870;42.812;74.628;2023-09-19T01:01:38;16.20;99.90
35746;DHT22;21870;42.812;74.628;2023-09-19T01:04:06;16.30;99.90
35746;DHT22;21870;42.812;74.628;2023-09-19T01:06:32;16.30;99.90
35746;DHT22;21870;42.812;74.628;2023-09-19T01:08:58;16.30;99.90
35746;DHT22;21870;42.812;74.628;2023-09-19T01:11:37;16.30;99.90
35746;DHT22;21870;42.812;74.628;2023-09-19T01:16:50;16.30;99.90
35746;DHT22;21870;42.812;74.628;2023-09-19T01:19:58;16.40;99.90
35746;DHT22;21870;42.812;74.628;2023-09-19T01:26:02;16.80;99.90
35746;DHT22;21870;42.812;74.628;2023-09-19T01:31:21;17.10;99.90
35746;DHT22;21870;42.812;74.628;2023-09-19T01:34:02;17.10;99.90
35746;DHT22;21870;42.812;74.628;2023-09-19T01:36:35;17.10;99.90
35746;DHT22;21870;42.812;74.628;2023-09-19T01:39:10;17.10;99.90
35746;DHT22;21870;42.812;74.628;2023-09-19T01:44:21;17.00;99.90
35746;DHT22;21870;42.812;74.628;2023-09-19T01:46:48;17.10;99.90
35746;DHT22;21870;42.812;74.628;2023-09-19T01:49:36;17.10;99.90
35746;DHT22;21870;42.812;74.628;2023-09-19T01:52:11;17.00;99.90
35746;DHT22;21870;42.812;74.628;2023-09-19T01:54:52;17.20;99.90
35746;DHT22;21870;42.812;74.628;2023-09-19T01:57:28;17.30;99.90
35746;DHT22;21870;42.812;74.628;2023-09-19T02:00:10;17.40;99.90
35746;DHT22;21870;42.812;74.628;2023-09-19T02:02:44;17.50;99.90
35746;DHT22;21870;42.812;74.628;2023-09-19T02:05:11;17.60;99.90
35746;DHT22;21870;42.812;74.628;2023-09-19T02:07:38;17.70;99.90
35746;DHT22;21870;42.812;74.628;2023-09-19T02:10:07;17.80;99.90
35746;DHT22;21870;42.812;74.628;2023-09-19T02:12:33;17.90;99.90
35746;DHT22;21870;42.812;74.628;2023-09-19T02:15:01;17.90;99.90
35746;DHT22;21870;42.812;74.628;2023-09-19T02:17:27;18.00;99.90
35746;DHT22;21870;42.812;74.628;2023-09-19T02:19:54;18.10;99.90
35746;DHT22;21870;42.812;74.628;2023-09-19T02:22:21;18.10;99.90
35746;DHT22;21870;42.812;74.628;2023-09-19T02:24:48;18.10;99.90
35746;DHT22;21870;42.812;74.628;2023-09-19T02:27:14;18.20;99.90
35746;DHT22;21870;42.812;74.628;2023-09-19T02:29:42;18.20;99.90
35746;DHT22;21870;42.812;74.628;2023-09-19T02:32:08;18.20;99.90
35746;DHT22;21870;42.812;74.628;2023-09-19T02:34:37;18.30;99.90
35746;DHT22;21870;42.812;74.628;2023-09-19T02:37:05;18.30;99.90
35746;DHT22;21870;42.812;74.628;2023-09-19T02:39:32;18.50;99.90
35746;DHT22;21870;42.812;74.628;2023-09-19T02:41:58;18.50;99.90
35746;DHT22;21870;42.812;74.628;2023-09-19T02:44:24;18.60;99.90
35746;DHT22;21870;42.812;74.628;2023-09-19T02:46:50;18.60;99.90
35746;DHT22;21870;42.812;74.628;2023-09-19T02:49:17;18.70;99.90
35746;DHT22;21870;42.812;74.628;2023-09-19T02:51:45;18.80;99.90
35746;DHT22;21870;42.812;74.628;2023-09-19T02:54:13;18.90;99.90
35746;DHT22;21870;42.812;74.628;2023-09-19T02:56:39;19.00;99.90
35746;DHT22;21870;42.812;74.628;2023-09-19T02:59:06;19.10;99.90
35746;DHT22;21870;42.812;74.628;2023-09-19T03:01:33;19.20;99.90
35746;DHT22;21870;42.812;74.628;2023-09-19T03:03:59;19.30;99.90
35746;DHT22;21870;42.812;74.628;2023-09-19T03:06:25;19.40;99.90
35746;DHT22;21870;42.812;74.628;2023-09-19T03:08:51;19.50;99.90
35746;DHT22;21870;42.812;74.628;2023-09-19T03:11:18;19.60;99.90
35746;DHT22;21870;42.812;74.628;2023-09-19T03:13:54;19.70;99.90
35746;DHT22;21870;42.812;74.628;2023-09-19T03:16:20;19.80;99.90
35746;DHT22;21870;42.812;74.628;2023-09-19T03:18:51;19.90;99.90
35746;DHT22;21870;42.812;74.628;2023-09-19T03:21:17;20.00;99.90
35746;DHT22;21870;42.812;74.628;2023-09-19T03:23:44;20.10;99.90
35746;DHT22;21870;42.812;74.628;2023-09-19T03:26:12;20.30;99.90
35746;DHT22;21870;42.812;74.628;2023-09-19T03:28:40;20.40;99.90
35746;DHT22;21870;42.812;74.628;2023-09-19T03:31:07;20.40;99.90
35746;DHT22;21870;42.812;74.628;2023-09-19T03:33:33;20.50;99.90
35746;DHT22;21870;42.812;74.628;2023-09-19T03:36:00;20.50;99.90
35746;DHT22;21870;42.812;74.628;2023-09-19T03:38:27;20.60;99.90
35746;DHT22;21870;42.812;74.628;2023-09-19T03:40:57;20.70;99.90
35746;DHT22;21870;42.812;74.628;2023-09-19T03:43:23;20.70;99.90
35746;DHT22;21870;42.812;74.628;2023-09-19T03:45:49;20.80;99.90
35746;DHT22;21870;42.812;74.628;2023-09-19T03:48:16;20.90;99.90
35746;DHT22;21870;42.812;74.628;2023-09-19T03:50:43;21.00;99.90
35746;DHT22;21870;42.812;74.628;2023-09-19T03:53:11;21.10;99.90
35746;DHT22;21870;42.812;74.628;2023-09-19T03:55:37;21.20;99.90
35746;DHT22;21870;42.812;74.628;2023-09-19T03:58:06;21.20;99.90
35746;DHT22;21870;42.812;74.628;2023-09-19T04:00:32;21.20;99.90
35746;DHT22;21870;42.812;74.628;2023-09-19T04:03:00;21.40;99.90
35746;DHT22;21870;42.812;74.628;2023-09-19T04:05:31;21.50;99.90
35746;DHT22;21870;42.812;74.628;2023-09-19T04:07:57;21.50;99.90
35746;DHT22;21870;42.812;74.628;2023-09-19T04:10:23;21.60;99.90
35746;DHT22;21870;42.812;74.628;2023-09-19T04:12:53;21.70;99.90
35746;DHT22;21870;42.812;74.628;2023-09-19T04:15:19;21.80;99.90
35746;DHT22;21870;42.812;74.628;2023-09-19T04:17:49;22.00;99.90
35746;DHT22;21870;42.812;74.628;2023-09-19T04:20:17;22.00;99.90
35746;DHT22;21870;42.812;74.628;2023-09-19T04:22:43;22.20;99.90
35746;DHT22;21870;42.812;74.628;2023-09-19T04:25:09;22.30;99.90
35746;DHT22;21870;42.812;74.628;2023-09-19T04:27:36;22.60;99.90
35746;DHT22;21870;42.812;74.628;2023-09-19T04:30:02;23.00;99.90
35746;DHT22;21870;42.812;74.628;2023-09-19T04:32:29;23.10;99.90
35746;DHT22;21870;42.812;74.628;2023-09-19T04:34:58;23.20;99.90
35746;DHT22;21870;42.812;74.628;2023-09-19T04:37:26;23.20;99.90
35746;DHT22;21870;42.812;74.628;2023-09-19T04:39:52;23.40;99.90
35746;DHT22;21870;42.812;74.628;2023-09-19T04:42:18;23.50;99.90
35746;DHT22;21870;42.812;74.628;2023-09-19T04:44:44;23.60;99.90
35746;DHT22;21870;42.812;74.628;2023-09-19T04:47:10;23.90;99.90
35746;DHT22;21870;42.812;74.628;2023-09-19T04:49:38;24.20;99.90
35746;DHT22;21870;42.812;74.628;2023-09-19T04:52:05;24.50;99.90
35746;DHT22;21870;42.812;74.628;2023-09-19T04:54:32;24.80;99.90
35746;DHT22;21870;42.812;74.628;2023-09-19T04:56:59;25.00;99.90
35746;DHT22;21870;42.812;74.628;2023-09-19T04:59:28;25.30;99.90
35746;DHT22;21870;42.812;74.628;2023-09-19T05:01:54;25.50;99.90
35746;DHT22;21870;42.812;74.628;2023-09-19T05:04:21;25.80;99.90
35746;DHT22;21870;42.812;74.628;2023-09-19T05:06:47;25.90;99.90
35746;DHT22;21870;42.812;74.628;2023-09-19T05:09:13;25.90;99.90
35746;DHT22;21870;42.812;74.628;2023-09-19T05:11:41;26.00;99.90
35746;DHT22;21870;42.812;74.628;2023-09-19T05:14:07;26.00;99.90
35746;DHT22;21870;42.812;74.628;2023-09-19T05:16:33;26.10;99.90
35746;DHT22;21870;42.812;74.628;2023-09-19T05:18:59;26.30;99.90
35746;DHT22;21870;42.812;74.628;2023-09-19T05:21:26;26.50;99.90
35746;DHT22;21870;42.812;74.628;2023-09-19T05:23:55;26.50;99.90
35746;DHT22;21870;42.812;74.628;2023-09-19T05:26:22;26.70;99.90
35746;DHT22;21870;42.812;74.628;2023-09-19T05:28:48;26.70;99.90
35746;DHT22;21870;42.812;74.628;2023-09-19T05:31:14;26.80;99.90
35746;DHT22;21870;42.812;74.628;2023-09-19T05:33:41;26.90;99.90
35746;DHT22;21870;42.812;74.628;2023-09-19T05:36:08;26.90;99.90
35746;DHT22;21870;42.812;74.628;2023-09-19T05:38:36;26.80;99.60
35746;DHT22;21870;42.812;74.628;2023-09-19T05:41:02;26.90;99.90
35746;DHT22;21870;42.812;74.628;2023-09-19T05:43:28;27.00;99.90
35746;DHT22;21870;42.812;74.628;2023-09-19T05:45:54;27.20;99.90
35746;DHT22;21870;42.812;74.628;2023-09-19T05:48:22;27.20;99.90
35746;DHT22;21870;42.812;74.628;2023-09-19T05:50:48;27.30;99.90
35746;DHT22;21870;42.812;74.628;2023-09-19T05:53:17;27.30;99.90
35746;DHT22;21870;42.812;74.628;2023-09-19T05:55:44;27.60;99.90
35746;DHT22;21870;42.812;74.628;2023-09-19T05:58:11;27.70;99.90
35746;DHT22;21870;42.812;74.628;2023-09-19T06:00:39;27.80;99.90
35746;DHT22;21870;42.812;74.628;2023-09-19T06:03:08;27.80;99.10
35746;DHT22;21870;42.812;74.628;2023-09-19T06:05:35;27.80;99.90
35746;DHT22;21870;42.812;74.628;2023-09-19T06:08:01;27.90;99.40
35746;DHT22;21870;42.812;74.628;2023-09-19T06:10:33;28.00;98.90
35746;DHT22;21870;42.812;74.628;2023-09-19T06:13:02;28.20;99.90
35746;DHT22;21870;42.812;74.628;2023-09-19T06:15:32;28.30;99.60
35746;DHT22;21870;42.812;74.628;2023-09-19T06:17:59;28.50;99.90
35746;DHT22;21870;42.812;74.628;2023-09-19T06:20:25;28.60;98.70
35746;DHT22;21870;42.812;74.628;2023-09-19T06:22:52;28.60;98.30
35746;DHT22;21870;42.812;74.628;2023-09-19T06:25:19;28.60;95.40
35746;DHT22;21870;42.812;74.628;2023-09-19T06:27:49;28.60;95.60
35746;DHT22;21870;42.812;74.628;2023-09-19T06:30:18;28.50;95.30
35746;DHT22;21870;42.812;74.628;2023-09-19T06:32:44;28.70;97.80
35746;DHT22;21870;42.812;74.628;2023-09-19T06:35:15;28.80;95.40
35746;DHT22;21870;42.812;74.628;2023-09-19T06:37:42;28.90;94.20
35746;DHT22;21870;42.812;74.628;2023-09-19T06:40:12;28.80;93.80
35746;DHT22;21870;42.812;74.628;2023-09-19T06:42:44;28.90;96.70
35746;DHT22;21870;42.812;74.628;2023-09-19T06:45:13;29.00;95.40
35746;DHT22;21870;42.812;74.628;2023-09-19T06:47:47;29.10;94.60
35746;DHT22;21870;42.812;74.628;2023-09-19T06:50:20;29.00;93.10
35746;DHT22;21870;42.812;74.628;2023-09-19T06:52:49;29.20;95.10
35746;DHT22;21870;42.812;74.628;2023-09-19T06:55:18;29.30;95.10
35746;DHT22;21870;42.812;74.628;2023-09-19T06:57:48;29.60;95.60
35746;DHT22;21870;42.812;74.628;2023-09-19T07:00:15;29.50;95.50
35746;DHT22;21870;42.812;74.628;2023-09-19T07:03:05;29.60;94.60
35746;DHT22;21870;42.812;74.628;2023-09-19T07:05:34;29.70;94.20
35746;DHT22;21870;42.812;74.628;2023-09-19T07:08:08;29.90;94.40
35746;DHT22;21870;42.812;74.628;2023-09-19T07:10:36;29.60;94.90
35746;DHT22;21870;42.812;74.628;2023-09-19T07:13:04;29.70;94.10
35746;DHT22;21870;42.812;74.628;2023-09-19T07:15:35;29.70;94.60
35746;DHT22;21870;42.812;74.628;2023-09-19T07:18:05;29.80;92.40
35746;DHT22;21870;42.812;74.628;2023-09-19T07:20:32;29.80;92.50
35746;DHT22;21870;42.812;74.628;2023-09-19T07:22:59;30.00;92.30
35746;DHT22;21870;42.812;74.628;2023-09-19T07:25:26;30.00;92.30
35746;DHT22;21870;42.812;74.628;2023-09-19T07:27:54;30.10;92.50
35746;DHT22;21870;42.812;74.628;2023-09-19T07:30:20;30.10;92.70
35746;DHT22;21870;42.812;74.628;2023-09-19T07:32:47;30.10;91.00
35746;DHT22;21870;42.812;74.628;2023-09-19T07:35:13;30.20;90.90
35746;DHT22;21870;42.812;74.628;2023-09-19T07:37:40;30.20;90.60
35746;DHT22;21870;42.812;74.628;2023-09-19T07:40:07;30.30;91.80
35746;DHT22;21870;42.812;74.628;2023-09-19T07:42:35;30.60;91.60
35746;DHT22;21870;42.812;74.628;2023-09-19T07:45:03;30.60;92.00
35746;DHT22;21870;42.812;74.628;2023-09-19T07:47:29;30.40;92.80
35746;DHT22;21870;42.812;74.628;2023-09-19T07:49:56;30.50;91.10
35746;DHT22;21870;42.812;74.628;2023-09-19T07:52:22;30.40;91.30
35746;DHT22;21870;42.812;74.628;2023-09-19T07:54:48;30.30;91.30
35746;DHT22;21870;42.812;74.628;2023-09-19T07:57:15;30.40;91.90
35746;DHT22;21870;42.812;74.628;2023-09-19T07:59:42;30.40;90.90
35746;DHT22;21870;42.812;74.628;2023-09-19T08:02:09;30.70;90.60
35746;DHT22;21870;42.812;74.628;2023-09-19T08:04:44;30.70;90.80
35746;DHT22;21870;42.812;74.628;2023-09-19T08:07:12;30.50;90.80
35746;DHT22;21870;42.812;74.628;2023-09-19T08:09:42;30.50;91.90
35746;DHT22;21870;42.812;74.628;2023-09-19T08:12:12;30.50;91.50
35746;DHT22;21870;42.812;74.628;2023-09-19T08:14:38;30.40;89.00
35746;DHT22;21870;42.812;74.628;2023-09-19T08:17:07;30.50;91.10
35746;DHT22;21870;42.812;74.628;2023-09-19T08:19:36;30.60;90.40
35746;DHT22;21870;42.812;74.628;2023-09-19T08:22:02;30.80;92.60
35746;DHT22;21870;42.812;74.628;2023-09-19T08:24:29;30.70;91.20
35746;DHT22;21870;42.812;74.628;2023-09-19T08:26:56;30.70;90.30
35746;DHT22;21870;42.812;74.628;2023-09-19T08:29:24;31.00;90.00
35746;DHT22;21870;42.812;74.628;2023-09-19T08:31:57;30.90;90.50
35746;DHT22;21870;42.812;74.628;2023-09-19T08:34:24;30.90;91.20
35746;DHT22;21870;42.812;74.628;2023-09-19T08:36:54;30.90;90.20
35746;DHT22;21870;42.812;74.628;2023-09-19T08:39:24;30.90;88.70
35746;DHT22;21870;42.812;74.628;2023-09-19T08:42:00;31.00;88.30
35746;DHT22;21870;42.812;74.628;2023-09-19T08:44:28;31.10;87.30
35746;DHT22;21870;42.812;74.628;2023-09-19T08:47:09;31.30;87.90
35746;DHT22;21870;42.812;74.628;2023-09-19T08:50:15;31.00;88.60
35746;DHT22;21870;42.812;74.628;2023-09-19T08:52:46;31.00;88.60
35746;DHT22;21870;42.812;74.628;2023-09-19T08:55:14;31.30;88.20
35746;DHT22;21870;42.812;74.628;2023-09-19T08:57:49;31.00;89.00
35746;DHT22;21870;42.812;74.628;2023-09-19T09:00:17;30.90;88.40
35746;DHT22;21870;42.812;74.628;2023-09-19T09:02:44;30.80;88.90
35746;DHT22;21870;42.812;74.628;2023-09-19T09:05:11;30.80;91.00
35746;DHT22;21870;42.812;74.628;2023-09-19T09:07:37;30.90;88.60
35746;DHT22;21870;42.812;74.628;2023-09-19T09:10:04;31.10;89.30
35746;DHT22;21870;42.812;74.628;2023-09-19T09:12:31;31.00;88.30
35746;DHT22;21870;42.812;74.628;2023-09-19T09:14:57;31.00;88.40
35746;DHT22;21870;42.812;74.628;2023-09-19T09:17:24;30.90;86.90
35746;DHT22;21870;42.812;74.628;2023-09-19T09:19:53;31.00;90.40
35746;DHT22;21870;42.812;74.628;2023-09-19T09:22:19;31.00;88.00
35746;DHT22;21870;42.812;74.628;2023-09-19T09:24:57;31.00;87.50
35746;DHT22;21870;42.812;74.628;2023-09-19T09:27:30;30.80;87.80
35746;DHT22;21870;42.812;74.628;2023-09-19T09:29:58;30.40;86.80
35746;DHT22;21870;42.812;74.628;2023-09-19T09:34:54;29.70;87.50
35746;DHT22;21870;42.812;74.628;2023-09-19T09:37:21;29.40;88.70
35746;DHT22;21870;42.812;74.628;2023-09-19T09:39:55;29.30;89.30
35746;DHT22;21870;42.812;74.628;2023-09-19T09:42:35;29.00;89.90
35746;DHT22;21870;42.812;74.628;2023-09-19T09:45:21;28.90;90.60
35746;DHT22;21870;42.812;74.628;2023-09-19T09:48:00;28.80;90.70
35746;DHT22;21870;42.812;74.628;2023-09-19T09:50:33;28.70;91.10
35746;DHT22;21870;42.812;74.628;2023-09-19T09:53:24;28.70;90.30
35746;DHT22;21870;42.812;74.628;2023-09-19T09:56:06;28.70;90.60
35746;DHT22;21870;42.812;74.628;2023-09-19T09:58:33;28.80;90.50
35746;DHT22;21870;42.812;74.628;2023-09-19T10:01:04;28.80;89.20
35746;DHT22;21870;42.812;74.628;2023-09-19T10:03:42;28.70;89.80
35746;DHT22;21870;42.812;74.628;2023-09-19T10:06:17;28.50;90.00
35746;DHT22;21870;42.812;74.628;2023-09-19T10:09:08;28.40;90.00
35746;DHT22;21870;42.812;74.628;2023-09-19T10:11:48;28.20;90.20
35746;DHT22;21870;42.812;74.628;2023-09-19T10:14:27;27.90;90.90
35746;DHT22;21870;42.812;74.628;2023-09-19T10:16:59;27.80;90.60
35746;DHT22;21870;42.812;74.628;2023-09-19T10:19:55;27.70;91.00
35746;DHT22;21870;42.812;74.628;2023-09-19T10:22:26;27.90;90.50
35746;DHT22;21870;42.812;74.628;2023-09-19T10:24:56;28.00;91.70
35746;DHT22;21870;42.812;74.628;2023-09-19T10:27:26;28.00;91.20
35746;DHT22;21870;42.812;74.628;2023-09-19T10:29:52;28.00;90.90
35746;DHT22;21870;42.812;74.628;2023-09-19T10:32:23;27.80;91.30
35746;DHT22;21870;42.812;74.628;2023-09-19T10:34:51;27.70;91.60
35746;DHT22;21870;42.812;74.628;2023-09-19T10:37:22;27.80;91.00
35746;DHT22;21870;42.812;74.628;2023-09-19T10:39:52;28.10;91.00
35746;DHT22;21870;42.812;74.628;2023-09-19T10:42:20;28.30;90.60
35746;DHT22;21870;42.812;74.628;2023-09-19T10:44:52;28.10;90.70
35746;DHT22;21870;42.812;74.628;2023-09-19T10:47:21;28.00;90.90
35746;DHT22;21870;42.812;74.628;2023-09-19T10:49:50;27.90;90.80
35746;DHT22;21870;42.812;74.628;2023-09-19T10:52:22;27.80;91.70
35746;DHT22;21870;42.812;74.628;2023-09-19T10:54:52;27.60;91.50
35746;DHT22;21870;42.812;74.628;2023-09-19T10:57:24;27.80;91.30
35746;DHT22;21870;42.812;74.628;2023-09-19T11:00:04;27.70;91.60
35746;DHT22;21870;42.812;74.628;2023-09-19T11:03:17;27.70;91.40
35746;DHT22;21870;42.812;74.628;2023-09-19T11:06:03;27.70;91.60
35746;DHT22;21870;42.812;74.628;2023-09-19T11:08:53;27.60;91.70
35746;DHT22;21870;42.812;74.628;2023-09-19T11:30:39;26.60;91.50
35746;DHT22;21870;42.812;74.628;2023-09-19T11:33:31;26.50;91.70
35746;DHT22;21870;42.812;74.628;2023-09-19T11:46:30;25.90;92.80
35746;DHT22;21870;42.812;74.628;2023-09-19T11:49:06;25.80;92.40
35746;DHT22;21870;42.812;74.628;2023-09-19T11:51:42;25.80;92.60
35746;DHT22;21870;42.812;74.628;2023-09-19T11:54:14;25.80;92.50
35746;DHT22;21870;42.812;74.628;2023-09-19T11:57:01;25.80;92.50
35746;DHT22;21870;42.812;74.628;2023-09-19T11:59:30;25.70;92.70
35746;DHT22;21870;42.812;74.628;2023-09-19T12:02:00;25.60;92.50
35746;DHT22;21870;42.812;74.628;2023-09-19T12:04:36;25.60;92.50
35746;DHT22;21870;42.812;74.628;2023-09-19T12:07:10;25.60;92.50
35746;DHT22;21870;42.812;74.628;2023-09-19T12:09:45;25.50;92.50
35746;DHT22;21870;42.812;74.628;2023-09-19T12:12:49;25.50;92.60
35746;DHT22;21870;42.812;74.628;2023-09-19T12:15:22;25.40;92.50
35746;DHT22;21870;42.812;74.628;2023-09-19T12:17:48;25.40;92.70
35746;DHT22;21870;42.812;74.628;2023-09-19T12:20:14;25.30;92.90
35746;DHT22;21870;42.812;74.628;2023-09-19T12:22:45;25.30;93.10
35746;DHT22;21870;42.812;74.628;2023-09-19T12:25:12;25.20;93.30
35746;DHT22;21870;42.812;74.628;2023-09-19T12:27:43;25.20;93.50
35746;DHT22;21870;42.812;74.628;2023-09-19T12:30:10;25.10;93.60
35746;DHT22;21870;42.812;74.628;2023-09-19T12:32:40;25.00;93.80
35746;DHT22;21870;42.812;74.628;2023-09-19T12:35:08;25.00;93.90
35746;DHT22;21870;42.812;74.628;2023-09-19T12:37:37;25.00;94.10
35746;DHT22;21870;42.812;74.628;2023-09-19T12:40:08;25.00;94.10
35746;DHT22;21870;42.812;74.628;2023-09-19T12:42:44;24.90;94.30
35746;DHT22;21870;42.812;74.628;2023-09-19T12:45:11;24.90;94.30
35746;DHT22;21870;42.812;74.628;2023-09-19T12:47:51;24.80;94.30
35746;DHT22;21870;42.812;74.628;2023-09-19T12:50:27;24.70;94.40
35746;DHT22;21870;42.812;74.628;2023-09-19T12:52:56;24.70;94.40
35746;DHT22;21870;42.812;74.628;2023-09-19T12:55:27;24.70;94.40
35746;DHT22;21870;42.812;74.628;2023-09-19T13:00:42;24.60;94.40
35746;DHT22;21870;42.812;74.628;2023-09-19T13:03:18;24.60;94.30
35746;DHT22;21870;42.812;74.628;2023-09-19T13:05:52;24.60;94.40
35746;DHT22;21870;42.812;74.628;2023-09-19T13:08:34;24.50;94.60
35746;DHT22;21870;42.812;74.628;2023-09-19T13:25:15;24.20;96.50
35746;DHT22;21870;42.812;74.628;2023-09-19T13:27:45;24.20;96.00
35746;DHT22;21870;42.812;74.628;2023-09-19T13:30:12;24.20;97.20
35746;DHT22;21870;42.812;74.628;2023-09-19T13:32:39;24.10;96.40
35746;DHT22;21870;42.812;74.628;2023-09-19T13:35:07;24.00;96.60
35746;DHT22;21870;42.812;74.628;2023-09-19T13:37:38;24.00;97.00
35746;DHT22;21870;42.812;74.628;2023-09-19T13:40:10;24.00;97.10
35746;DHT22;21870;42.812;74.628;2023-09-19T13:42:37;23.90;97.50
35746;DHT22;21870;42.812;74.628;2023-09-19T13:45:04;23.80;97.70
35746;DHT22;21870;42.812;74.628;2023-09-19T13:47:31;23.70;97.90
35746;DHT22;21870;42.812;74.628;2023-09-19T13:49:59;23.70;97.60
35746;DHT22;21870;42.812;74.628;2023-09-19T13:52:26;23.70;97.80
35746;DHT22;21870;42.812;74.628;2023-09-19T13:54:55;23.70;99.50
35746;DHT22;21870;42.812;74.628;2023-09-19T13:57:24;23.60;98.30
35746;DHT22;21870;42.812;74.628;2023-09-19T13:59:51;23.60;98.60
35746;DHT22;21870;42.812;74.628;2023-09-19T14:02:20;23.50;98.20
35746;DHT22;21870;42.812;74.628;2023-09-19T14:04:49;23.50;99.90
35746;DHT22;21870;42.812;74.628;2023-09-19T14:07:16;23.50;99.90
35746;DHT22;21870;42.812;74.628;2023-09-19T14:09:43;23.50;99.10
35746;DHT22;21870;42.812;74.628;2023-09-19T14:12:09;23.40;99.00
35746;DHT22;21870;42.812;74.628;2023-09-19T14:14:36;23.40;98.90
35746;DHT22;21870;42.812;74.628;2023-09-19T14:17:03;23.40;99.90
35746;DHT22;21870;42.812;74.628;2023-09-19T14:19:30;23.30;99.90
35746;DHT22;21870;42.812;74.628;2023-09-19T14:21:56;23.30;99.10
35746;DHT22;21870;42.812;74.628;2023-09-19T14:24:23;23.10;99.10
35746;DHT22;21870;42.812;74.628;2023-09-19T14:26:49;23.20;99.30
35746;DHT22;21870;42.812;74.628;2023-09-19T14:29:16;23.10;99.30
35746;DHT22;21870;42.812;74.628;2023-09-19T14:31:43;23.10;99.40
35746;DHT22;21870;42.812;74.628;2023-09-19T14:34:09;23.00;99.90
35746;DHT22;21870;42.812;74.628;2023-09-19T14:36:36;22.90;99.90
35746;DHT22;21870;42.812;74.628;2023-09-19T14:39:04;22.90;99.90
35746;DHT22;21870;42.812;74.628;2023-09-19T14:41:31;22.90;99.90
35746;DHT22;21870;42.812;74.628;2023-09-19T14:43:57;22.90;99.90
35746;DHT22;21870;42.812;74.628;2023-09-19T14:46:24;22.70;99.90
35746;DHT22;21870;42.812;74.628;2023-09-19T14:48:53;22.70;99.90
35746;DHT22;21870;42.812;74.628;2023-09-19T14:51:19;22.70;99.90
35746;DHT22;21870;42.812;74.628;2023-09-19T14:53:46;22.70;99.90
35746;DHT22;21870;42.812;74.628;2023-09-19T14:56:13;22.60;99.90
35746;DHT22;21870;42.812;74.628;2023-09-19T14:58:44;22.60;99.90
35746;DHT22;21870;42.812;74.628;2023-09-19T15:01:11;22.50;99.90
35746;DHT22;21870;42.812;74.628;2023-09-19T15:03:39;22.40;99.90
35746;DHT22;21870;42.812;74.628;2023-09-19T15:06:07;22.30;99.90
35746;DHT22;21870;42.812;74.628;2023-09-19T15:08:36;22.30;99.90
35746;DHT22;21870;42.812;74.628;2023-09-19T15:11:07;22.20;99.90
35746;DHT22;21870;42.812;74.628;2023-09-19T15:13:34;22.10;99.90
35746;DHT22;21870;42.812;74.628;2023-09-19T15:16:04;22.00;99.90
35746;DHT22;21870;42.812;74.628;2023-09-19T15:18:35;22.00;99.90
35746;DHT22;21870;42.812;74.628;2023-09-19T15:21:06;22.10;99.90
35746;DHT22;21870;42.812;74.628;2023-09-19T15:23:33;22.10;99.90
35746;DHT22;21870;42.812;74.628;2023-09-19T15:26:07;22.10;99.90
35746;DHT22;21870;42.812;74.628;2023-09-19T15:28:34;22.10;99.90
35746;DHT22;21870;42.812;74.628;2023-09-19T15:31:05;22.10;99.90
35746;DHT22;21870;42.812;74.628;2023-09-19T15:33:32;22.10;99.90
35746;DHT22;21870;42.812;74.628;2023-09-19T15:36:09;22.20;99.90
35746;DHT22;21870;42.812;74.628;2023-09-19T15:39:05;22.10;99.90
35746;DHT22;21870;42.812;74.628;2023-09-19T15:41:35;22.10;99.90
35746;DHT22;21870;42.812;74.628;2023-09-19T15:44:03;22.10;99.90
35746;DHT22;21870;42.812;74.628;2023-09-19T15:46:31;22.10;99.90
35746;DHT22;21870;42.812;74.628;2023-09-19T15:48:59;22.10;99.90
35746;DHT22;21870;42.812;74.628;2023-09-19T15:51:26;22.10;99.90
35746;DHT22;21870;42.812;74.628;2023-09-19T15:53:53;22.20;99.90
35746;DHT22;21870;42.812;74.628;2023-09-19T15:56:20;22.30;99.90
35746;DHT22;21870;42.812;74.628;2023-09-19T15:58:50;22.20;99.90
35746;DHT22;21870;42.812;74.628;2023-09-19T16:01:17;22.10;99.90
35746;DHT22;21870;42.812;74.628;2023-09-19T16:03:53;22.10;99.90
35746;DHT22;21870;42.812;74.628;2023-09-19T16:06:27;22.10;99.90
35746;DHT22;21870;42.812;74.628;2023-09-19T16:08:56;22.10;99.90
35746;DHT22;21870;42.812;74.628;2023-09-19T16:11:24;22.10;99.90
35746;DHT22;21870;42.812;74.628;2023-09-19T16:13:51;22.10;99.90
35746;DHT22;21870;42.812;74.628;2023-09-19T16:16:19;22.10;99.90
35746;DHT22;21870;42.812;74.628;2023-09-19T16:18:53;22.10;99.90
35746;DHT22;21870;42.812;74.628;2023-09-19T16:21:24;22.10;99.90
35746;DHT22;21870;42.812;74.628;2023-09-19T16:23:52;22.10;99.90
35746;DHT22;21870;42.812;74.628;2023-09-19T16:26:22;22.00;99.90
35746;DHT22;21870;42.812;74.628;2023-09-19T16:28:57;22.00;99.90
35746;DHT22;21870;42.812;74.628;2023-09-19T16:31:27;22.00;99.90